createdAt,value
2022-08-10T00:01:08.247Z,737.80
2022-08-10T00:06:06.394Z,745.10
2022-08-10T00:11:16.666Z,780.90
2022-08-10T00:16:06.036Z,781.80
2022-08-10T00:21:06.148Z,693.60
2022-08-10T00:26:03.271Z,640.90
2022-08-10T00:31:03.591Z,607.50
2022-08-10T00:36:01.933Z,638.50
2022-08-10T00:41:01.049Z,688.10
2022-08-10T00:46:00.614Z,702.70
2022-08-10T00:50:59.553Z,595.50
2022-08-10T00:57:12.912Z,709.90
2022-08-10T01:00:58.098Z,636.00
2022-08-10T01:05:58.256Z,617.00
2022-08-10T01:10:57.401Z,633.10
2022-08-10T01:15:55.804Z,601.80
2022-08-10T01:20:54.939Z,731.40
2022-08-10T01:26:11.946Z,693.40
2022-08-10T01:30:53.315Z,679.10
2022-08-10T01:35:52.443Z,638.90
2022-08-10T01:40:51.792Z,696.60
2022-08-10T01:45:52.919Z,667.60
2022-08-10T01:50:53.430Z,665.80
2022-08-10T01:55:49.449Z,679.30
2022-08-10T02:00:49.598Z,723.00
2022-08-10T02:05:47.894Z,622.60
2022-08-10T02:10:47.262Z,657.90
2022-08-10T02:16:02.172Z,631.30
2022-08-10T02:20:45.590Z,696.80
2022-08-10T02:25:44.976Z,700.20
2022-08-10T02:30:44.087Z,611.20
2022-08-10T02:35:54.637Z,643.90
2022-08-10T02:42:18.794Z,671.70
2022-08-10T02:45:41.768Z,668.10
2022-08-10T02:50:41.068Z,627.80
2022-08-10T02:55:40.402Z,607.00
2022-08-10T03:00:40.756Z,622.00
2022-08-10T03:05:39.892Z,721.60
2022-08-10T03:10:41.315Z,657.50
2022-08-10T03:15:37.426Z,622.00
2022-08-10T03:20:39.693Z,646.70
2022-08-10T03:25:36.035Z,629.30
2022-08-10T03:30:36.383Z,632.30
2022-08-10T03:35:35.501Z,643.00
2022-08-10T03:40:45.205Z,624.90
2022-08-10T03:45:54.228Z,592.90
2022-08-10T03:50:51.250Z,608.20
2022-08-10T03:56:28.053Z,644.40
2022-08-10T04:00:32.660Z,648.80
2022-08-10T04:05:38.822Z,626.90
2022-08-10T04:10:30.019Z,660.10
2022-08-10T04:15:30.371Z,653.20
2022-08-10T04:20:34.591Z,633.50
2022-08-10T04:25:26.884Z,653.60
2022-08-10T04:30:28.034Z,633.60
2022-08-10T04:35:25.283Z,641.60
2022-08-10T04:40:29.235Z,619.60
2022-08-10T04:45:23.774Z,622.70
2022-08-10T04:50:23.938Z,603.90
2022-08-10T04:55:22.087Z,605.50
2022-08-10T05:00:22.284Z,630.50
2022-08-10T05:05:22.438Z,597.80
2022-08-10T05:10:19.766Z,618.10
2022-08-10T05:15:19.070Z,661.70
2022-08-10T05:20:18.410Z,647.40
2022-08-10T05:25:17.711Z,622.80
2022-08-10T05:30:18.008Z,632.00
2022-08-10T05:35:16.300Z,631.00
2022-08-10T05:40:15.601Z,644.80
2022-08-10T05:45:14.914Z,659.20
2022-08-10T05:50:15.252Z,622.80
2022-08-10T05:55:13.591Z,661.20
2022-08-10T06:00:37.366Z,641.90
2022-08-10T06:05:13.036Z,678.20
2022-08-10T06:10:10.669Z,658.20
2022-08-10T06:15:21.599Z,623.60
2022-08-10T06:20:10.839Z,601.50
2022-08-10T06:26:08.192Z,664.90
2022-08-10T06:30:20.222Z,684.20
2022-08-10T06:35:08.339Z,674.00
2022-08-10T06:40:06.726Z,661.10
2022-08-10T06:45:05.834Z,662.90
2022-08-10T06:50:08.811Z,723.60
2022-08-10T06:55:05.257Z,645.20
2022-08-10T07:00:03.594Z,656.70
2022-08-10T07:05:02.888Z,662.10
2022-08-10T07:10:02.179Z,636.20
2022-08-10T07:15:02.486Z,646.20
2022-08-10T07:20:00.822Z,703.70
2022-08-10T07:25:00.126Z,710.80
2022-08-10T07:29:59.431Z,659.80
2022-08-10T07:34:58.764Z,675.00
2022-08-10T07:40:04.356Z,668.20
2022-08-10T07:44:58.046Z,687.90
2022-08-10T07:49:57.341Z,624.40
2022-08-10T07:54:57.654Z,732.30
2022-08-10T07:59:54.971Z,664.00
2022-08-10T08:04:53.139Z,561.20
2022-08-10T08:09:57.735Z,654.00
2022-08-10T08:14:52.454Z,625.40
2022-08-10T08:19:55.575Z,582.40
2022-08-10T08:24:52.629Z,597.60
2022-08-10T08:29:50.275Z,569.30
2022-08-10T08:34:51.461Z,713.20
2022-08-10T08:39:48.783Z,631.90
2022-08-10T08:44:47.967Z,648.10
2022-08-10T08:50:08.713Z,785.50
2022-08-10T08:54:46.451Z,589.20
2022-08-10T08:59:46.771Z,566.50
2022-08-10T09:04:46.056Z,617.30
2022-08-10T09:09:45.361Z,586.80
2022-08-10T09:14:43.657Z,595.20
2022-08-10T09:19:42.953Z,606.50
2022-08-10T09:24:42.249Z,499.20
2022-08-10T09:29:41.549Z,527.50
2022-08-10T09:36:22.447Z,527.00
2022-08-10T09:40:56.112Z,526.80
2022-08-10T09:44:57.865Z,552.90
2022-08-10T09:49:54.463Z,643.90
2022-08-10T09:54:38.553Z,453.50
2022-08-10T10:00:00.377Z,506.00
2022-08-10T10:04:36.007Z,481.30
2022-08-10T10:09:35.312Z,442.30
2022-08-10T10:14:34.621Z,449.40
2022-08-10T10:19:40.361Z,425.10
2022-08-10T10:24:34.143Z,439.70
2022-08-10T10:29:57.512Z,419.00
2022-08-10T10:34:31.545Z,345.40
2022-08-10T10:39:34.817Z,525.40
2022-08-10T10:44:30.792Z,521.90
2022-08-10T10:49:29.048Z,508.80
2022-08-10T10:54:28.323Z,486.90
2022-08-10T10:59:55.284Z,365.50
2022-08-10T11:04:26.854Z,676.30
2022-08-10T11:10:05.528Z,748.40
2022-08-10T11:14:29.255Z,609.20
2022-08-10T11:19:24.585Z,607.20
2022-08-10T11:24:48.884Z,675.50
2022-08-10T11:29:22.929Z,656.40
2022-08-10T11:34:48.277Z,615.70
2022-08-10T11:39:21.393Z,443.80
2022-08-10T11:44:21.549Z,446.50
2022-08-10T11:49:19.820Z,613.50
2022-08-10T11:54:19.111Z,526.80
2022-08-10T11:59:18.458Z,671.10
2022-08-10T12:04:17.541Z,676.80
2022-08-10T12:10:06.635Z,594.70
2022-08-10T12:14:23.967Z,594.00
2022-08-10T12:19:15.129Z,616.60
2022-08-10T12:24:15.457Z,515.60
2022-08-10T12:29:14.780Z,568.00
2022-08-10T12:34:14.085Z,547.20
2022-08-10T12:39:13.527Z,374.60
2022-08-10T12:44:12.731Z,617.10
2022-08-10T12:49:10.899Z,604.50
2022-08-10T12:54:10.026Z,578.70
2022-08-10T12:59:10.336Z,612.00
2022-08-10T13:04:20.533Z,562.20
2022-08-10T13:09:06.849Z,545.90
2022-08-10T13:14:07.154Z,483.10
2022-08-10T13:19:06.468Z,624.30
2022-08-10T13:24:05.813Z,314.60
2022-08-10T13:29:12.959Z,328.60
2022-08-10T13:34:42.707Z,321.50
2022-08-10T13:39:04.636Z,360.70
2022-08-10T13:44:02.748Z,702.70
2022-08-10T13:49:01.877Z,393.40
2022-08-10T13:54:03.228Z,317.50
2022-08-10T13:59:00.533Z,321.60
2022-08-10T14:03:59.834Z,270.70
2022-08-10T14:08:59.136Z,300.80
2022-08-10T14:13:58.475Z,303.60
2022-08-10T14:18:58.601Z,304.00
2022-08-10T14:23:58.926Z,366.60
2022-08-10T14:28:57.213Z,292.60
2022-08-10T14:33:55.499Z,280.30
2022-08-10T14:38:54.810Z,365.10
2022-08-10T14:43:53.114Z,279.50
2022-08-10T14:48:53.437Z,311.50
2022-08-10T14:53:54.150Z,313.20
2022-08-10T14:59:06.243Z,293.10
2022-08-10T15:03:59.122Z,302.10
2022-08-10T15:08:51.528Z,253.40
2022-08-10T15:14:41.890Z,471.50
2022-08-10T15:18:58.234Z,285.90
2022-08-10T15:24:05.670Z,293.60
2022-08-10T15:29:22.676Z,241.90
2022-08-10T15:33:57.580Z,439.50
2022-08-10T15:38:46.743Z,418.50
2022-08-10T15:43:46.866Z,335.10
2022-08-10T15:48:44.179Z,419.00
2022-08-10T15:53:49.056Z,342.20
2022-08-10T15:58:42.565Z,355.50
2022-08-10T16:03:41.891Z,359.90
2022-08-10T16:08:55.893Z,233.10
2022-08-10T16:13:51.015Z,272.00
2022-08-10T16:18:39.544Z,299.60
2022-08-10T16:23:38.669Z,272.70
2022-08-10T16:28:37.995Z,247.50
2022-08-10T16:33:53.906Z,219.10
2022-08-10T16:38:36.500Z,213.60
2022-08-10T16:43:36.820Z,199.20
2022-08-10T16:48:50.158Z,210.90
2022-08-10T16:53:34.123Z,224.40
2022-08-10T16:58:34.443Z,346.00
2022-08-10T17:04:08.423Z,235.30
2022-08-10T17:08:32.953Z,235.00
2022-08-10T17:13:33.128Z,213.10
2022-08-10T17:18:31.270Z,232.90
2022-08-10T17:23:29.635Z,213.60
2022-08-10T17:28:34.761Z,235.50
2022-08-10T17:33:27.978Z,289.90
2022-08-10T17:38:28.074Z,293.20
2022-08-10T17:43:46.455Z,330.20
2022-08-10T17:48:27.469Z,294.80
2022-08-10T17:53:24.777Z,350.80
2022-08-10T17:58:25.093Z,352.50
2022-08-10T18:03:25.800Z,394.80
2022-08-10T18:08:22.793Z,414.50
2022-08-10T18:13:22.947Z,428.00
2022-08-10T18:18:21.289Z,411.80
2022-08-10T18:23:21.391Z,372.40
2022-08-10T18:28:19.735Z,455.70
2022-08-10T18:33:20.862Z,358.10
2022-08-10T18:38:18.214Z,375.60
2022-08-10T18:44:04.755Z,309.80
2022-08-10T18:48:18.622Z,269.70
2022-08-10T18:53:17.760Z,377.30
2022-08-10T18:58:15.074Z,453.30
2022-08-10T19:03:14.218Z,291.50
2022-08-10T19:08:13.382Z,349.00
2022-08-10T19:13:14.658Z,334.10
2022-08-10T19:18:13.770Z,418.60
2022-08-10T19:23:14.134Z,437.70
2022-08-10T19:28:11.402Z,325.90
2022-08-10T19:33:10.620Z,355.80
2022-08-10T19:38:08.749Z,430.70
2022-08-10T19:43:08.999Z,456.30
2022-08-10T19:48:08.235Z,632.30
2022-08-10T19:53:06.415Z,562.90
2022-08-10T19:58:05.826Z,755.80
2022-08-10T20:03:08.121Z,583.00
2022-08-10T20:08:05.084Z,680.20
2022-08-10T20:13:03.422Z,647.60
2022-08-10T20:18:02.752Z,679.50
2022-08-10T20:23:03.066Z,654.20
2022-08-10T20:28:01.971Z,838.70
2022-08-10T20:33:01.477Z,691.60
2022-08-10T20:38:03.416Z,697.00
2022-08-10T20:42:58.898Z,806.30
2022-08-10T20:47:58.155Z,738.50
2022-08-10T20:52:58.458Z,733.30
2022-08-10T20:57:57.700Z,678.20
2022-08-10T21:02:58.149Z,821.90
2022-08-10T21:08:03.565Z,791.30
2022-08-10T21:12:55.578Z,737.80
2022-08-10T21:17:53.979Z,723.90
2022-08-10T21:22:53.160Z,772.10
2022-08-10T21:27:55.421Z,904.90
2022-08-10T21:32:51.495Z,707.20
2022-08-10T21:37:56.457Z,729.90
2022-08-10T21:42:50.853Z,770.50
2022-08-10T21:48:16.881Z,704.00
2022-08-10T21:52:53.478Z,738.30
2022-08-10T21:57:47.556Z,738.40
2022-08-10T22:02:49.756Z,738.40
2022-08-10T22:07:46.825Z,735.70
2022-08-10T22:12:46.802Z,807.60
2022-08-10T22:18:03.417Z,810.90
2022-08-10T22:22:44.249Z,784.00
2022-08-10T22:27:46.294Z,849.90
2022-08-10T22:32:42.705Z,665.70
2022-08-10T22:37:43.131Z,652.80
2022-08-10T22:42:58.876Z,640.50
2022-08-10T22:47:41.556Z,700.70
2022-08-10T22:53:02.067Z,721.50
2022-08-10T22:57:37.990Z,649.80
2022-08-10T23:02:37.438Z,613.00
2022-08-10T23:07:37.497Z,583.40
2022-08-10T23:12:34.757Z,647.30
2022-08-10T23:18:01.614Z,593.20
2022-08-10T23:22:35.181Z,603.60
2022-08-10T23:27:38.836Z,653.20
2022-08-10T23:32:32.823Z,657.20
2022-08-10T23:37:33.118Z,638.50
2022-08-10T23:42:31.395Z,969.40
2022-08-10T23:47:32.696Z,765.10
2022-08-10T23:52:31.974Z,823.80
2022-08-10T23:57:30.267Z,769.10
